createdAt,value
2023-09-29T00:03:48.725Z,20.5
2023-09-29T00:09:55.487Z,20.5
2023-09-29T00:16:01.468Z,20.5
2023-09-29T00:22:07.885Z,20.5
2023-09-29T00:28:14.032Z,20.5
2023-09-29T00:34:20.416Z,20.5
2023-09-29T00:40:26.608Z,20.5
2023-09-29T00:46:32.604Z,20.4
2023-09-29T00:52:38.864Z,20.4
2023-09-29T00:58:45.193Z,20.4
2023-09-29T01:04:51.590Z,20.4
2023-09-29T01:10:57.781Z,20.4
2023-09-29T01:17:03.747Z,20.4
2023-09-29T01:23:11.990Z,20.4
2023-09-29T01:29:18.196Z,20.3
2023-09-29T01:35:24.790Z,20.3
2023-09-29T01:41:31.017Z,20.3
2023-09-29T01:47:37.863Z,20.3
2023-09-29T01:53:44.585Z,20.3
2023-09-29T01:59:51.192Z,20.3
2023-09-29T02:05:57.271Z,20.3
2023-09-29T02:12:03.821Z,20.3
2023-09-29T02:18:09.567Z,20.2
2023-09-29T02:24:16.307Z,20.2
2023-09-29T02:30:22.719Z,20.2
2023-09-29T02:36:28.888Z,20.2
2023-09-29T02:42:35.501Z,20.2
2023-09-29T02:48:41.902Z,20.1
2023-09-29T02:54:48.076Z,20.1
2023-09-29T03:00:54.465Z,20.1
2023-09-29T03:07:00.864Z,20.1
2023-09-29T03:13:06.842Z,20.1
2023-09-29T03:19:12.830Z,20.1
2023-09-29T03:25:19.217Z,20.1
2023-09-29T03:31:25.604Z,20.1
2023-09-29T03:37:32.010Z,20
2023-09-29T03:43:38.177Z,20
2023-09-29T03:49:44.424Z,20
2023-09-29T03:55:50.569Z,20
2023-09-29T04:01:56.771Z,20
2023-09-29T04:08:02.956Z,20
2023-09-29T04:14:17.544Z,20
2023-09-29T04:20:37.028Z,20
2023-09-29T04:26:43.450Z,19.9
2023-09-29T04:32:49.722Z,19.9
2023-09-29T04:38:56.005Z,19.9
2023-09-29T04:45:02.695Z,19.9
2023-09-29T04:51:09.221Z,19.9
2023-09-29T04:57:15.191Z,19.9
2023-09-29T05:03:21.693Z,19.8
2023-09-29T05:09:28.184Z,19.8
2023-09-29T05:15:34.604Z,19.8
2023-09-29T05:21:40.974Z,19.8
2023-09-29T05:27:47.347Z,19.8
2023-09-29T05:33:53.793Z,19.8
2023-09-29T05:40:00.541Z,19.8
2023-09-29T05:46:07.000Z,19.8
2023-09-29T05:52:13.756Z,19.8
2023-09-29T05:58:19.927Z,19.8
2023-09-29T06:04:26.256Z,19.8
2023-09-29T06:10:32.936Z,19.7
2023-09-29T06:16:39.379Z,19.7
2023-09-29T06:22:45.709Z,19.7
2023-09-29T06:28:52.097Z,19.7
2023-09-29T06:34:58.380Z,19.7
2023-09-29T06:41:04.280Z,19.7
2023-09-29T06:47:10.468Z,19.7
2023-09-29T06:53:16.698Z,19.7
2023-09-29T06:59:23.557Z,20.5
2023-09-29T07:05:29.756Z,20.1
2023-09-29T07:11:36.164Z,19.8
2023-09-29T07:17:42.785Z,19.8
2023-09-29T07:23:50.392Z,19.7
2023-09-29T07:29:59.340Z,19.7
2023-09-29T07:36:05.843Z,19.7
2023-09-29T07:42:12.222Z,20.4
2023-09-29T07:48:19.858Z,19.9
2023-09-29T07:54:26.617Z,19.7
2023-09-29T08:00:33.241Z,19.7
2023-09-29T08:06:40.034Z,19.7
2023-09-29T08:12:46.413Z,19.8
2023-09-29T08:18:53.436Z,20
2023-09-29T08:25:01.046Z,20
2023-09-29T08:31:07.712Z,20.1
2023-09-29T08:37:14.445Z,20.1
2023-09-29T08:43:20.886Z,20.1
2023-09-29T08:49:35.836Z,20.2
2023-09-29T08:55:54.507Z,20.2
2023-09-29T09:02:03.240Z,20.2
2023-09-29T09:08:09.754Z,20.2
2023-09-29T09:14:16.565Z,20.2
2023-09-29T09:20:22.954Z,20.2
2023-09-29T09:26:29.350Z,20.3
2023-09-29T09:32:35.903Z,20.3
2023-09-29T09:38:42.374Z,20.3
2023-09-29T09:44:48.754Z,20.3
2023-09-29T09:50:55.180Z,20.3
2023-09-29T09:57:02.023Z,20.3
2023-09-29T10:03:08.178Z,20.4
2023-09-29T10:09:14.543Z,20.4
2023-09-29T10:15:20.944Z,20.4
2023-09-29T10:21:27.712Z,20.4
2023-09-29T10:27:33.886Z,20.4
2023-09-29T10:33:40.925Z,20.4
2023-09-29T10:39:47.073Z,20.4
2023-09-29T10:45:53.330Z,20.5
2023-09-29T10:51:59.862Z,20.5
2023-09-29T10:58:06.264Z,20.5
2023-09-29T11:04:15.210Z,20.5
2023-09-29T11:10:21.548Z,20.6
2023-09-29T11:16:27.916Z,20.6
2023-09-29T11:22:34.280Z,20.6
2023-09-29T11:28:40.691Z,20.7
2023-09-29T11:34:46.861Z,20.8
2023-09-29T11:40:53.258Z,20.8
2023-09-29T11:46:59.640Z,20.9
2023-09-29T11:53:06.038Z,20.9
2023-09-29T11:59:12.220Z,20.8
2023-09-29T12:05:18.073Z,20.9
2023-09-29T12:11:24.409Z,20.9
2023-09-29T12:17:30.382Z,20.9
2023-09-29T12:23:36.978Z,21
2023-09-29T12:29:43.609Z,21
2023-09-29T12:35:50.407Z,21
2023-09-29T12:41:56.810Z,21
2023-09-29T12:48:03.086Z,21.1
2023-09-29T12:54:09.608Z,21.1
2023-09-29T13:00:15.999Z,21.2
2023-09-29T13:06:22.365Z,21.2
2023-09-29T13:12:31.741Z,21.2
2023-09-29T13:18:38.499Z,21.3
2023-09-29T13:24:44.830Z,21.3
2023-09-29T13:30:54.591Z,21.3
2023-09-29T13:37:01.362Z,21.4
2023-09-29T13:43:07.462Z,21.4
2023-09-29T13:49:13.865Z,21.4
2023-09-29T13:55:20.323Z,21.4
2023-09-29T14:01:26.540Z,21.5
2023-09-29T14:07:32.825Z,21.5
2023-09-29T14:13:38.817Z,21.6
2023-09-29T14:19:45.215Z,21.6
2023-09-29T14:25:51.622Z,21.6
2023-09-29T14:31:57.808Z,21.6
2023-09-29T14:38:03.773Z,21.6
2023-09-29T14:44:09.950Z,21.6
2023-09-29T14:50:16.565Z,21.7
2023-09-29T14:56:22.766Z,21.6
2023-09-29T15:02:29.168Z,21.6
2023-09-29T15:08:35.559Z,21.7
2023-09-29T15:14:41.739Z,21.7
2023-09-29T15:20:48.113Z,21.8
2023-09-29T15:26:54.302Z,21.8
2023-09-29T15:33:01.198Z,21.7
2023-09-29T15:39:07.306Z,21.8
2023-09-29T15:45:13.748Z,21.8
2023-09-29T15:57:30.792Z,21.8
2023-09-29T16:03:37.869Z,21.8
2023-09-29T16:09:44.178Z,21.8
2023-09-29T16:15:50.363Z,21.8
2023-09-29T16:21:56.566Z,21.8
2023-09-29T16:28:02.742Z,21.8
2023-09-29T16:34:09.408Z,21.8
2023-09-29T16:40:26.813Z,21.8
2023-09-29T16:46:35.240Z,21.8
2023-09-29T16:52:41.434Z,21.8
2023-09-29T16:58:47.815Z,21.8
2023-09-29T17:04:53.990Z,21.8
2023-09-29T17:11:00.825Z,21.8
2023-09-29T17:17:07.414Z,21.8
2023-09-29T17:23:13.996Z,21.8
2023-09-29T17:29:20.600Z,21.8
2023-09-29T17:35:26.581Z,21.8
2023-09-29T17:41:32.986Z,21.9
2023-09-29T17:47:39.174Z,21.9
2023-09-29T17:53:45.368Z,21.9
2023-09-29T17:59:51.827Z,21.9
2023-09-29T18:05:58.162Z,21.9
2023-09-29T18:12:04.434Z,21.9
2023-09-29T18:18:11.161Z,21.9
2023-09-29T18:24:17.399Z,21.9
2023-09-29T18:30:23.757Z,21.9
2023-09-29T18:36:29.783Z,21.9
2023-09-29T18:42:36.498Z,21.9
2023-09-29T18:48:42.354Z,21.9
2023-09-29T18:54:48.475Z,21.9
2023-09-29T19:00:54.511Z,21.9
2023-09-29T19:07:00.655Z,21.9
2023-09-29T19:13:06.808Z,21.9
2023-09-29T19:19:13.003Z,21.9
2023-09-29T19:25:19.398Z,21.9
2023-09-29T19:31:25.664Z,21.9
2023-09-29T19:37:31.794Z,21.9
2023-09-29T19:43:37.954Z,21.9
2023-09-29T19:49:44.363Z,21.9
2023-09-29T19:55:50.989Z,21.8
2023-09-29T20:01:57.389Z,21.9
2023-09-29T20:08:03.755Z,21.9
2023-09-29T20:14:09.939Z,21.8
2023-09-29T20:20:16.312Z,21.8
2023-09-29T20:26:22.509Z,21.8
2023-09-29T20:32:28.508Z,21.8
2023-09-29T20:38:34.904Z,21.8
2023-09-29T20:44:41.077Z,21.8
2023-09-29T20:50:47.450Z,21.8
2023-09-29T20:56:53.476Z,21.8
2023-09-29T21:03:00.338Z,21.8
2023-09-29T21:09:06.900Z,21.8
2023-09-29T21:15:13.062Z,21.8
2023-09-29T21:21:19.716Z,21.7
2023-09-29T21:27:25.888Z,21.7
2023-09-29T21:33:32.310Z,21.7
2023-09-29T21:39:38.509Z,21.7
2023-09-29T21:45:44.869Z,21.7
2023-09-29T21:51:51.761Z,21.7
2023-09-29T21:57:58.398Z,21.7
2023-09-29T22:04:07.919Z,21.6
2023-09-29T22:10:14.057Z,21.6
2023-09-29T22:16:20.319Z,21.6
2023-09-29T22:22:26.852Z,21.6
2023-09-29T22:28:33.658Z,21.6
2023-09-29T22:34:40.360Z,21.6
2023-09-29T22:40:46.738Z,21.6
2023-09-29T22:46:53.157Z,21.6
2023-09-29T22:52:59.328Z,21.6
2023-09-29T22:59:05.711Z,21.6
2023-09-29T23:05:11.902Z,21.5
2023-09-29T23:11:17.867Z,21.5
2023-09-29T23:17:24.508Z,21.5
2023-09-29T23:23:30.674Z,21.5
2023-09-29T23:29:37.268Z,21.5
2023-09-29T23:35:43.241Z,21.5
2023-09-29T23:41:49.862Z,21.4
2023-09-29T23:47:56.281Z,21.4
2023-09-29T23:54:02.256Z,21.4
